CST,Max TemperatureF,Mean TemperatureF,Min TemperatureF,Max Dew PointF,MeanDew PointF,Min DewpointF,Max Humidity, Mean Humidity, Min Humidity, Max Sea Level PressureIn, Mean Sea Level PressureIn, Min Sea Level PressureIn, Max VisibilityMiles, Mean VisibilityMiles, Min VisibilityMiles, Max Wind SpeedMPH, Mean Wind SpeedMPH, Max Gust SpeedMPH,PrecipitationIn, CloudCover, Events, WindDirDegrees
2012-2-1,56,36,15,22,15,12,88,54,19,30.24,30.18,30.09,10,10,8,17,5,22,0.00,0,,298
2012-2-2,56,37,17,25,20,14,84,55,26,30.23,30.16,30.08,10,10,10,18,5,23,0.00,1,,112
2012-2-3,40,35,30,34,31,25,100,77,54,30.33,30.19,30.11,10,2,0,30,19,38,0.87,8,Fog-Rain-Snow,16
2012-2-4,34,21,8,28,24,7,92,84,75,30.55,30.39,30.27,10,6,0,26,11,33,0.18,5,Fog-Rain-Snow,344
2012-2-5,35,20,5,26,11,2,92,81,69,30.56,30.41,30.26,10,6,0,9,5,10,0.00,0,Fog,300
2012-2-6,34,20,5,26,12,2,91,76,61,30.38,30.28,30.20,10,4,0,24,5,30,T,3,Fog,322
2012-2-7,29,23,16,27,17,12,92,83,73,30.59,30.47,30.25,10,8,0,30,12,35,0.01,8,Fog-Snow,7
2012-2-8,25,20,14,20,15,12,100,87,74,30.58,30.39,30.21,10,8,1,14,6,18,T,7,,185
2012-2-9,44,27,10,29,15,5,100,77,54,30.32,30.17,30.08,10,4,0,24,7,31,0.00,3,Fog,268
2012-2-10,23,14,5,13,8,-4,88,75,61,30.69,30.42,30.19,10,10,5,17,11,21,T,6,Snow,4
2012-2-11,15,6,-3,1,-4,-9,87,67,46,30.82,30.72,30.61,10,10,10,16,5,20,0.00,2,,264
2012-2-12,29,18,6,18,11,1,80,71,61,30.57,30.18,29.80,10,10,10,22,14,29,0.00,4,,162
2012-2-13,38,24,10,25,18,10,100,80,59,29.86,29.74,29.67,10,4,1,14,3,20,0.12,5,Snow,166
2012-2-14,45,27,9,30,19,6,100,79,57,29.90,29.83,29.74,10,8,4,8,3,9,0.00,1,,287
2012-2-15,40,29,18,29,22,16,92,70,48,30.26,30.04,29.83,10,9,4,22,7,30,0.00,1,,348
2012-2-16,43,29,14,29,22,11,92,75,57,30.32,30.22,30.10,10,10,8,15,5,18,0.00,2,,265
2012-2-17,44,30,16,27,22,15,92,72,51,30.28,30.18,30.09,10,8,4,16,5,18,0.00,1,,338
2012-2-18,42,29,16,28,22,12,92,73,53,30.28,30.17,30.03,10,10,9,17,7,21,0.00,2,,163
2012-2-19,39,32,24,34,29,19,100,85,69,30.03,29.87,29.67,10,8,2,24,12,31,0.00,7,,166
2012-2-20,41,33,25,39,31,19,100,88,75,29.91,29.65,29.51,10,6,1,33,14,41,0.02,7,Rain-Snow,343
2012-2-21,50,35,20,29,25,18,92,69,46,29.95,29.83,29.67,10,10,10,20,8,26,0.00,0,,267
2012-2-22,55,40,24,37,32,24,96,73,50,29.68,29.55,29.36,10,10,10,21,8,25,0.00,3,,296
2012-2-23,42,31,20,34,24,16,89,63,37,30.05,29.70,29.34,10,10,10,37,19,49,0.00,3,,321
2012-2-24,46,32,17,24,20,13,92,61,29,30.31,30.19,30.05,10,10,10,35,12,43,0.00,2,,300
2012-2-25,54,35,15,25,19,11,92,59,26,30.30,29.86,29.54,10,10,10,38,12,46,0.00,2,,125
2012-2-26,48,35,21,18,14,6,81,54,27,30.34,29.98,29.66,10,10,10,30,16,38,0.00,1,,305
2012-2-27,45,29,12,21,15,8,84,60,36,30.50,30.32,30.12,10,10,10,26,9,33,0.00,3,,142
2012-2-28,57,42,27,50,34,21,100,76,52,30.08,29.63,29.31,10,7,1,38,16,48,0.03,7,Rain-Thunderstorm,137
2012-2-29,51,37,23,23,20,16,81,54,26,29.87,29.79,29.62,10,10,10,37,17,44,0.00,1,,309